KAJR

Habersham County Airport

Cornelia, Georgia, USA
METAR KAJR 190315Z AUTO 00000KT 10SM CLR 00/M10 A3027 RMK AO2 T10021100
Observed Flight Rules
Jan-19 @ 03:15 UTC (30 minutes ago) Visual Flight Rules
Wind Visibility Clouds
Calm 10 miles
  • Clear skies
Temperatures Readings
Current -0°C / 32°F
Dewpoint -10°C / 14°F
Humidity 47%
Altimeter 30.27" Hg
Pressure 1025 hPa
Elevation 441
METAR KAJR 190315Z AUTO 00000KT 10SM CLR 00/M10 A3027 RMK AO2 T10021100
Observed Flight Rules
Jan-19 @ 03:15 UTC
(30 minutes ago)
VFR
Wind Visibility
Calm 10 miles
Clouds
  • Clear skies
Temperature Dewpoint
-0°C / 32°F -10°C / 14°F
Humidity Altimeter Pressure
47% 30.27" Hg 1025 hPa